Schedule Details


Flight Number: CTN4490
Departure: Franjo Tudman (LDZA) at 14:40
Arrival: Heathrow (EGLL) at 16:10
Route: PODET DCT KLAGY DCT ERKIR UL608 TEDGO UZ210 LIRSU UL608 COA L179 SASKI L608 LOGAN

Weather Information
LDZA 251730Z 02005KT 360V060 9999 FEW038 26/19 Q1018 NOSIG
EGLL 251720Z AUTO 17008KT 130V240 9999 NCD 31/12 Q1018 NOSIG
Schedule Frequency

Route Map